sensor_id;sensor_type;location;lat;lon;timestamp;P1;durP1;ratioP1;P2;durP2;ratioP2
21018;SDS011;10667;51.056;3.732;2023-09-19T00:02:16;8.07;;;2.22;;
21018;SDS011;10667;51.056;3.732;2023-09-19T00:04:44;10.55;;;2.70;;
21018;SDS011;10667;51.056;3.732;2023-09-19T00:07:10;12.05;;;2.50;;
21018;SDS011;10667;51.056;3.732;2023-09-19T00:09:35;5.93;;;2.08;;
21018;SDS011;10667;51.056;3.732;2023-09-19T00:12:04;7.95;;;2.50;;
21018;SDS011;10667;51.056;3.732;2023-09-19T00:14:31;6.80;;;2.15;;
21018;SDS011;10667;51.056;3.732;2023-09-19T00:17:03;9.55;;;3.10;;
21018;SDS011;10667;51.056;3.732;2023-09-19T00:19:36;7.13;;;2.05;;
21018;SDS011;10667;51.056;3.732;2023-09-19T00:22:07;16.73;;;3.53;;
21018;SDS011;10667;51.056;3.732;2023-09-19T00:24:33;7.15;;;2.47;;
21018;SDS011;10667;51.056;3.732;2023-09-19T00:26:59;9.45;;;2.80;;
21018;SDS011;10667;51.056;3.732;2023-09-19T00:29:25;8.55;;;2.67;;
21018;SDS011;10667;51.056;3.732;2023-09-19T00:31:54;5.35;;;2.15;;
21018;SDS011;10667;51.056;3.732;2023-09-19T00:34:22;9.02;;;2.45;;
21018;SDS011;10667;51.056;3.732;2023-09-19T00:36:47;10.27;;;2.58;;
21018;SDS011;10667;51.056;3.732;2023-09-19T00:39:13;12.40;;;2.90;;
21018;SDS011;10667;51.056;3.732;2023-09-19T00:41:39;13.55;;;3.13;;
21018;SDS011;10667;51.056;3.732;2023-09-19T00:44:05;7.60;;;3.15;;
21018;SDS011;10667;51.056;3.732;2023-09-19T00:46:31;9.65;;;2.67;;
21018;SDS011;10667;51.056;3.732;2023-09-19T00:48:57;11.32;;;3.08;;
21018;SDS011;10667;51.056;3.732;2023-09-19T00:51:24;12.10;;;2.65;;
21018;SDS011;10667;51.056;3.732;2023-09-19T00:53:52;11.63;;;2.80;;
21018;SDS011;10667;51.056;3.732;2023-09-19T00:56:19;9.13;;;3.17;;
21018;SDS011;10667;51.056;3.732;2023-09-19T00:58:45;10.32;;;2.97;;
21018;SDS011;10667;51.056;3.732;2023-09-19T01:01:12;8.15;;;2.80;;
21018;SDS011;10667;51.056;3.732;2023-09-19T01:03:40;14.93;;;3.40;;
21018;SDS011;10667;51.056;3.732;2023-09-19T01:06:06;10.80;;;2.53;;
21018;SDS011;10667;51.056;3.732;2023-09-19T01:08:33;10.88;;;2.72;;
21018;SDS011;10667;51.056;3.732;2023-09-19T01:11:03;8.45;;;2.47;;
21018;SDS011;10667;51.056;3.732;2023-09-19T01:16:42;11.48;;;2.75;;
21018;SDS011;10667;51.056;3.732;2023-09-19T01:22:25;12.82;;;3.08;;
21018;SDS011;10667;51.056;3.732;2023-09-19T01:28:04;15.40;;;3.22;;
21018;SDS011;10667;51.056;3.732;2023-09-19T01:30:42;10.93;;;2.70;;
21018;SDS011;10667;51.056;3.732;2023-09-19T01:33:09;12.98;;;3.38;;
21018;SDS011;10667;51.056;3.732;2023-09-19T01:35:39;10.00;;;2.83;;
21018;SDS011;10667;51.056;3.732;2023-09-19T01:38:08;9.32;;;2.72;;
21018;SDS011;10667;51.056;3.732;2023-09-19T01:40:43;11.90;;;3.17;;
21018;SDS011;10667;51.056;3.732;2023-09-19T01:43:31;11.90;;;3.20;;
21018;SDS011;10667;51.056;3.732;2023-09-19T01:49:03;13.18;;;3.00;;
21018;SDS011;10667;51.056;3.732;2023-09-19T01:52:11;17.13;;;3.03;;
21018;SDS011;10667;51.056;3.732;2023-09-19T01:54:51;13.60;;;3.22;;
21018;SDS011;10667;51.056;3.732;2023-09-19T01:57:29;10.02;;;2.83;;
21018;SDS011;10667;51.056;3.732;2023-09-19T02:00:20;16.38;;;2.88;;
21018;SDS011;10667;51.056;3.732;2023-09-19T02:02:48;14.70;;;2.83;;
21018;SDS011;10667;51.056;3.732;2023-09-19T02:05:22;9.32;;;2.85;;
21018;SDS011;10667;51.056;3.732;2023-09-19T02:07:49;11.43;;;2.78;;
21018;SDS011;10667;51.056;3.732;2023-09-19T02:10:15;12.93;;;3.22;;
21018;SDS011;10667;51.056;3.732;2023-09-19T02:12:42;13.70;;;2.80;;
21018;SDS011;10667;51.056;3.732;2023-09-19T02:15:07;14.60;;;3.45;;
21018;SDS011;10667;51.056;3.732;2023-09-19T02:17:34;11.05;;;2.75;;
21018;SDS011;10667;51.056;3.732;2023-09-19T02:19:59;13.68;;;3.10;;
21018;SDS011;10667;51.056;3.732;2023-09-19T02:22:26;14.98;;;3.53;;
21018;SDS011;10667;51.056;3.732;2023-09-19T02:24:52;13.30;;;3.35;;
21018;SDS011;10667;51.056;3.732;2023-09-19T02:27:18;12.20;;;2.78;;
21018;SDS011;10667;51.056;3.732;2023-09-19T02:29:44;22.42;;;3.25;;
21018;SDS011;10667;51.056;3.732;2023-09-19T02:32:10;14.43;;;2.97;;
21018;SDS011;10667;51.056;3.732;2023-09-19T02:34:36;11.48;;;2.90;;
21018;SDS011;10667;51.056;3.732;2023-09-19T02:37:03;13.38;;;3.70;;
21018;SDS011;10667;51.056;3.732;2023-09-19T02:39:30;12.40;;;3.25;;
21018;SDS011;10667;51.056;3.732;2023-09-19T02:41:56;10.63;;;3.53;;
21018;SDS011;10667;51.056;3.732;2023-09-19T02:44:22;13.48;;;3.13;;
21018;SDS011;10667;51.056;3.732;2023-09-19T02:46:48;14.68;;;3.47;;
21018;SDS011;10667;51.056;3.732;2023-09-19T02:49:14;12.40;;;3.25;;
21018;SDS011;10667;51.056;3.732;2023-09-19T02:51:40;10.93;;;3.00;;
21018;SDS011;10667;51.056;3.732;2023-09-19T02:54:06;13.77;;;3.53;;
21018;SDS011;10667;51.056;3.732;2023-09-19T02:56:32;18.08;;;3.05;;
21018;SDS011;10667;51.056;3.732;2023-09-19T02:58:58;10.60;;;3.10;;
21018;SDS011;10667;51.056;3.732;2023-09-19T03:01:25;21.58;;;3.88;;
21018;SDS011;10667;51.056;3.732;2023-09-19T03:03:53;11.60;;;3.20;;
21018;SDS011;10667;51.056;3.732;2023-09-19T03:06:19;17.35;;;3.67;;
21018;SDS011;10667;51.056;3.732;2023-09-19T03:08:45;18.25;;;3.40;;
21018;SDS011;10667;51.056;3.732;2023-09-19T03:11:12;13.90;;;2.65;;
21018;SDS011;10667;51.056;3.732;2023-09-19T03:13:40;13.05;;;3.22;;
21018;SDS011;10667;51.056;3.732;2023-09-19T03:16:07;15.80;;;3.35;;
21018;SDS011;10667;51.056;3.732;2023-09-19T03:18:36;13.18;;;3.08;;
21018;SDS011;10667;51.056;3.732;2023-09-19T03:21:02;11.15;;;2.88;;
21018;SDS011;10667;51.056;3.732;2023-09-19T03:23:28;14.40;;;2.90;;
21018;SDS011;10667;51.056;3.732;2023-09-19T03:25:54;11.38;;;2.80;;
21018;SDS011;10667;51.056;3.732;2023-09-19T03:28:21;10.10;;;2.97;;
21018;SDS011;10667;51.056;3.732;2023-09-19T03:31:03;14.63;;;3.58;;
21018;SDS011;10667;51.056;3.732;2023-09-19T03:33:30;14.65;;;2.78;;
21018;SDS011;10667;51.056;3.732;2023-09-19T03:35:59;10.32;;;3.30;;
21018;SDS011;10667;51.056;3.732;2023-09-19T03:38:26;12.55;;;3.22;;
21018;SDS011;10667;51.056;3.732;2023-09-19T03:40:53;15.80;;;3.33;;
21018;SDS011;10667;51.056;3.732;2023-09-19T03:43:19;15.10;;;3.40;;
21018;SDS011;10667;51.056;3.732;2023-09-19T03:45:45;11.48;;;3.65;;
21018;SDS011;10667;51.056;3.732;2023-09-19T03:48:11;10.85;;;2.80;;
21018;SDS011;10667;51.056;3.732;2023-09-19T03:50:38;15.48;;;3.63;;
21018;SDS011;10667;51.056;3.732;2023-09-19T03:53:04;11.15;;;3.17;;
21018;SDS011;10667;51.056;3.732;2023-09-19T03:55:32;10.13;;;2.90;;
21018;SDS011;10667;51.056;3.732;2023-09-19T03:57:57;19.30;;;3.47;;
21018;SDS011;10667;51.056;3.732;2023-09-19T04:00:23;19.80;;;3.55;;
21018;SDS011;10667;51.056;3.732;2023-09-19T04:02:51;11.93;;;3.35;;
21018;SDS011;10667;51.056;3.732;2023-09-19T04:05:18;12.38;;;3.40;;
21018;SDS011;10667;51.056;3.732;2023-09-19T04:07:44;9.38;;;2.65;;
21018;SDS011;10667;51.056;3.732;2023-09-19T04:10:10;12.23;;;3.55;;
21018;SDS011;10667;51.056;3.732;2023-09-19T04:12:39;18.70;;;3.58;;
21018;SDS011;10667;51.056;3.732;2023-09-19T04:15:06;15.43;;;3.28;;
21018;SDS011;10667;51.056;3.732;2023-09-19T04:17:32;11.20;;;2.95;;
21018;SDS011;10667;51.056;3.732;2023-09-19T04:19:58;10.75;;;3.08;;
21018;SDS011;10667;51.056;3.732;2023-09-19T04:22:24;13.55;;;3.70;;
21018;SDS011;10667;51.056;3.732;2023-09-19T04:24:50;13.77;;;3.42;;
21018;SDS011;10667;51.056;3.732;2023-09-19T04:27:16;14.25;;;3.83;;
21018;SDS011;10667;51.056;3.732;2023-09-19T04:29:41;14.48;;;2.90;;
21018;SDS011;10667;51.056;3.732;2023-09-19T04:32:07;14.05;;;3.88;;
21018;SDS011;10667;51.056;3.732;2023-09-19T04:34:34;14.80;;;3.40;;
21018;SDS011;10667;51.056;3.732;2023-09-19T04:37:00;15.45;;;3.22;;
21018;SDS011;10667;51.056;3.732;2023-09-19T04:39:27;15.32;;;3.47;;
21018;SDS011;10667;51.056;3.732;2023-09-19T04:41:53;19.88;;;4.60;;
21018;SDS011;10667;51.056;3.732;2023-09-19T04:44:20;13.00;;;3.33;;
21018;SDS011;10667;51.056;3.732;2023-09-19T04:46:46;14.60;;;3.45;;
21018;SDS011;10667;51.056;3.732;2023-09-19T04:49:12;18.13;;;4.03;;
21018;SDS011;10667;51.056;3.732;2023-09-19T04:51:38;17.52;;;3.47;;
21018;SDS011;10667;51.056;3.732;2023-09-19T04:54:04;11.98;;;2.83;;
21018;SDS011;10667;51.056;3.732;2023-09-19T04:56:31;19.83;;;3.78;;
21018;SDS011;10667;51.056;3.732;2023-09-19T04:58:57;15.52;;;3.65;;
21018;SDS011;10667;51.056;3.732;2023-09-19T05:01:23;15.63;;;3.45;;
21018;SDS011;10667;51.056;3.732;2023-09-19T05:03:49;22.10;;;4.15;;
21018;SDS011;10667;51.056;3.732;2023-09-19T05:06:19;14.60;;;3.35;;
21018;SDS011;10667;51.056;3.732;2023-09-19T05:08:47;13.80;;;3.47;;
21018;SDS011;10667;51.056;3.732;2023-09-19T05:11:17;11.55;;;3.08;;
21018;SDS011;10667;51.056;3.732;2023-09-19T05:13:43;14.68;;;3.08;;
21018;SDS011;10667;51.056;3.732;2023-09-19T05:16:09;14.13;;;3.17;;
21018;SDS011;10667;51.056;3.732;2023-09-19T05:18:35;13.43;;;3.20;;
21018;SDS011;10667;51.056;3.732;2023-09-19T05:21:04;13.13;;;2.83;;
21018;SDS011;10667;51.056;3.732;2023-09-19T05:23:29;11.43;;;3.40;;
21018;SDS011;10667;51.056;3.732;2023-09-19T05:25:56;17.38;;;3.70;;
21018;SDS011;10667;51.056;3.732;2023-09-19T05:28:23;15.63;;;3.75;;
21018;SDS011;10667;51.056;3.732;2023-09-19T05:30:49;17.08;;;3.67;;
21018;SDS011;10667;51.056;3.732;2023-09-19T05:33:14;17.95;;;3.67;;
21018;SDS011;10667;51.056;3.732;2023-09-19T05:35:40;13.23;;;3.60;;
21018;SDS011;10667;51.056;3.732;2023-09-19T05:38:07;15.73;;;3.72;;
21018;SDS011;10667;51.056;3.732;2023-09-19T05:40:34;13.10;;;3.13;;
21018;SDS011;10667;51.056;3.732;2023-09-19T05:43:00;13.70;;;3.13;;
21018;SDS011;10667;51.056;3.732;2023-09-19T05:45:28;14.98;;;3.35;;
21018;SDS011;10667;51.056;3.732;2023-09-19T05:47:54;15.27;;;3.60;;
21018;SDS011;10667;51.056;3.732;2023-09-19T05:50:29;16.90;;;3.33;;
21018;SDS011;10667;51.056;3.732;2023-09-19T05:52:55;14.63;;;2.70;;
21018;SDS011;10667;51.056;3.732;2023-09-19T05:55:23;11.88;;;2.97;;
21018;SDS011;10667;51.056;3.732;2023-09-19T05:57:53;13.55;;;3.17;;
21018;SDS011;10667;51.056;3.732;2023-09-19T06:00:19;20.95;;;3.40;;
21018;SDS011;10667;51.056;3.732;2023-09-19T06:02:51;12.23;;;3.60;;
21018;SDS011;10667;51.056;3.732;2023-09-19T06:05:17;17.80;;;4.03;;
21018;SDS011;10667;51.056;3.732;2023-09-19T06:07:43;12.70;;;2.80;;
21018;SDS011;10667;51.056;3.732;2023-09-19T06:10:09;15.38;;;3.55;;
21018;SDS011;10667;51.056;3.732;2023-09-19T06:12:53;15.77;;;3.63;;
21018;SDS011;10667;51.056;3.732;2023-09-19T06:15:20;17.83;;;3.75;;
21018;SDS011;10667;51.056;3.732;2023-09-19T06:17:48;16.35;;;3.72;;
21018;SDS011;10667;51.056;3.732;2023-09-19T06:20:15;12.10;;;3.30;;
21018;SDS011;10667;51.056;3.732;2023-09-19T06:22:45;17.08;;;3.58;;
21018;SDS011;10667;51.056;3.732;2023-09-19T06:25:11;11.43;;;3.13;;
21018;SDS011;10667;51.056;3.732;2023-09-19T06:27:44;14.35;;;3.33;;
21018;SDS011;10667;51.056;3.732;2023-09-19T06:30:10;14.52;;;3.40;;
21018;SDS011;10667;51.056;3.732;2023-09-19T06:32:42;15.43;;;3.22;;
21018;SDS011;10667;51.056;3.732;2023-09-19T06:35:09;12.07;;;3.53;;
21018;SDS011;10667;51.056;3.732;2023-09-19T06:37:38;16.80;;;3.10;;
21018;SDS011;10667;51.056;3.732;2023-09-19T06:40:08;17.70;;;3.88;;
21018;SDS011;10667;51.056;3.732;2023-09-19T06:42:39;11.15;;;2.72;;
21018;SDS011;10667;51.056;3.732;2023-09-19T06:45:12;14.95;;;3.35;;
21018;SDS011;10667;51.056;3.732;2023-09-19T06:47:42;12.98;;;3.22;;
21018;SDS011;10667;51.056;3.732;2023-09-19T06:50:09;19.17;;;3.22;;
21018;SDS011;10667;51.056;3.732;2023-09-19T06:52:39;13.60;;;3.60;;
21018;SDS011;10667;51.056;3.732;2023-09-19T06:55:06;15.90;;;3.28;;
21018;SDS011;10667;51.056;3.732;2023-09-19T06:57:32;12.65;;;3.03;;
21018;SDS011;10667;51.056;3.732;2023-09-19T06:59:58;14.32;;;3.40;;
21018;SDS011;10667;51.056;3.732;2023-09-19T07:02:23;16.48;;;3.45;;
21018;SDS011;10667;51.056;3.732;2023-09-19T07:04:49;14.05;;;3.50;;
21018;SDS011;10667;51.056;3.732;2023-09-19T07:07:15;12.90;;;3.03;;
21018;SDS011;10667;51.056;3.732;2023-09-19T07:09:41;14.85;;;3.47;;
21018;SDS011;10667;51.056;3.732;2023-09-19T07:12:07;12.18;;;3.28;;
21018;SDS011;10667;51.056;3.732;2023-09-19T07:14:33;13.80;;;3.25;;
21018;SDS011;10667;51.056;3.732;2023-09-19T07:16:59;16.52;;;3.25;;
21018;SDS011;10667;51.056;3.732;2023-09-19T07:19:28;10.77;;;2.90;;
21018;SDS011;10667;51.056;3.732;2023-09-19T07:21:55;13.30;;;3.47;;
21018;SDS011;10667;51.056;3.732;2023-09-19T07:24:20;10.13;;;2.80;;
21018;SDS011;10667;51.056;3.732;2023-09-19T07:26:49;13.77;;;3.35;;
21018;SDS011;10667;51.056;3.732;2023-09-19T07:29:15;10.35;;;2.58;;
21018;SDS011;10667;51.056;3.732;2023-09-19T07:31:40;17.33;;;3.55;;
21018;SDS011;10667;51.056;3.732;2023-09-19T07:34:06;12.63;;;2.92;;
21018;SDS011;10667;51.056;3.732;2023-09-19T07:36:34;13.77;;;2.92;;
21018;SDS011;10667;51.056;3.732;2023-09-19T07:39:00;19.95;;;3.78;;
21018;SDS011;10667;51.056;3.732;2023-09-19T07:41:25;14.70;;;2.75;;
21018;SDS011;10667;51.056;3.732;2023-09-19T07:43:52;10.07;;;2.97;;
21018;SDS011;10667;51.056;3.732;2023-09-19T07:46:17;12.05;;;2.80;;
21018;SDS011;10667;51.056;3.732;2023-09-19T07:48:43;20.15;;;3.83;;
21018;SDS011;10667;51.056;3.732;2023-09-19T07:51:13;12.90;;;2.67;;
21018;SDS011;10667;51.056;3.732;2023-09-19T07:53:41;18.60;;;3.35;;
21018;SDS011;10667;51.056;3.732;2023-09-19T07:56:08;11.05;;;3.03;;
21018;SDS011;10667;51.056;3.732;2023-09-19T07:58:35;8.82;;;2.55;;
21018;SDS011;10667;51.056;3.732;2023-09-19T08:01:11;16.83;;;3.22;;
21018;SDS011;10667;51.056;3.732;2023-09-19T08:03:38;11.20;;;3.13;;
21018;SDS011;10667;51.056;3.732;2023-09-19T08:06:08;15.70;;;3.97;;
21018;SDS011;10667;51.056;3.732;2023-09-19T08:08:35;13.43;;;3.00;;
21018;SDS011;10667;51.056;3.732;2023-09-19T08:11:05;17.35;;;3.25;;
21018;SDS011;10667;51.056;3.732;2023-09-19T08:13:40;11.82;;;3.17;;
21018;SDS011;10667;51.056;3.732;2023-09-19T08:16:09;14.45;;;3.67;;
21018;SDS011;10667;51.056;3.732;2023-09-19T08:18:35;17.45;;;3.38;;
21018;SDS011;10667;51.056;3.732;2023-09-19T08:21:05;11.60;;;2.55;;
21018;SDS011;10667;51.056;3.732;2023-09-19T08:23:33;18.65;;;3.85;;
21018;SDS011;10667;51.056;3.732;2023-09-19T08:25:58;14.57;;;3.53;;
21018;SDS011;10667;51.056;3.732;2023-09-19T08:28:28;9.57;;;2.90;;
21018;SDS011;10667;51.056;3.732;2023-09-19T08:30:54;16.95;;;3.47;;
21018;SDS011;10667;51.056;3.732;2023-09-19T08:33:20;12.45;;;2.80;;
21018;SDS011;10667;51.056;3.732;2023-09-19T08:35:46;10.90;;;2.70;;
21018;SDS011;10667;51.056;3.732;2023-09-19T08:38:11;14.75;;;3.03;;
21018;SDS011;10667;51.056;3.732;2023-09-19T08:40:39;14.02;;;3.40;;
21018;SDS011;10667;51.056;3.732;2023-09-19T08:43:07;19.25;;;3.47;;
21018;SDS011;10667;51.056;3.732;2023-09-19T08:45:33;17.40;;;3.10;;
21018;SDS011;10667;51.056;3.732;2023-09-19T08:51:00;9.38;;;2.47;;
21018;SDS011;10667;51.056;3.732;2023-09-19T08:56:08;13.73;;;2.90;;
21018;SDS011;10667;51.056;3.732;2023-09-19T08:58:39;16.85;;;2.90;;
21018;SDS011;10667;51.056;3.732;2023-09-19T09:01:27;12.02;;;2.80;;
21018;SDS011;10667;51.056;3.732;2023-09-19T09:03:54;16.48;;;3.25;;
21018;SDS011;10667;51.056;3.732;2023-09-19T09:06:20;8.18;;;2.65;;
21018;SDS011;10667;51.056;3.732;2023-09-19T09:08:48;10.48;;;2.80;;
21018;SDS011;10667;51.056;3.732;2023-09-19T09:11:16;16.45;;;2.85;;
21018;SDS011;10667;51.056;3.732;2023-09-19T09:13:43;15.10;;;2.80;;
21018;SDS011;10667;51.056;3.732;2023-09-19T09:16:13;11.02;;;2.83;;
21018;SDS011;10667;51.056;3.732;2023-09-19T09:18:42;10.70;;;2.53;;
21018;SDS011;10667;51.056;3.732;2023-09-19T09:21:09;14.48;;;2.85;;
21018;SDS011;10667;51.056;3.732;2023-09-19T09:23:35;11.18;;;2.65;;
21018;SDS011;10667;51.056;3.732;2023-09-19T09:26:00;9.95;;;2.63;;
21018;SDS011;10667;51.056;3.732;2023-09-19T09:28:31;15.57;;;3.00;;
21018;SDS011;10667;51.056;3.732;2023-09-19T09:30:58;9.57;;;2.30;;
21018;SDS011;10667;51.056;3.732;2023-09-19T09:33:25;9.85;;;2.60;;
21018;SDS011;10667;51.056;3.732;2023-09-19T09:38:22;7.05;;;2.50;;
21018;SDS011;10667;51.056;3.732;2023-09-19T09:40:57;10.63;;;2.10;;
21018;SDS011;10667;51.056;3.732;2023-09-19T09:43:33;9.15;;;2.40;;
21018;SDS011;10667;51.056;3.732;2023-09-19T09:46:19;10.00;;;2.22;;
21018;SDS011;10667;51.056;3.732;2023-09-19T09:48:46;16.30;;;3.05;;
21018;SDS011;10667;51.056;3.732;2023-09-19T09:51:33;9.23;;;2.17;;
21018;SDS011;10667;51.056;3.732;2023-09-19T09:54:17;9.35;;;2.40;;
21018;SDS011;10667;51.056;3.732;2023-09-19T09:56:53;13.68;;;2.22;;
21018;SDS011;10667;51.056;3.732;2023-09-19T09:59:20;10.88;;;2.17;;
21018;SDS011;10667;51.056;3.732;2023-09-19T10:01:49;12.13;;;2.00;;
21018;SDS011;10667;51.056;3.732;2023-09-19T10:04:36;9.15;;;2.17;;
21018;SDS011;10667;51.056;3.732;2023-09-19T10:07:07;9.13;;;1.80;;
21018;SDS011;10667;51.056;3.732;2023-09-19T10:09:45;7.38;;;1.70;;
21018;SDS011;10667;51.056;3.732;2023-09-19T10:12:12;9.02;;;2.05;;
21018;SDS011;10667;51.056;3.732;2023-09-19T10:14:41;7.72;;;1.58;;
21018;SDS011;10667;51.056;3.732;2023-09-19T10:17:12;9.18;;;1.80;;
21018;SDS011;10667;51.056;3.732;2023-09-19T10:22:18;10.05;;;1.85;;
21018;SDS011;10667;51.056;3.732;2023-09-19T10:24:47;5.15;;;1.58;;
21018;SDS011;10667;51.056;3.732;2023-09-19T10:27:19;3.97;;;1.55;;
21018;SDS011;10667;51.056;3.732;2023-09-19T10:29:47;8.48;;;1.70;;
21018;SDS011;10667;51.056;3.732;2023-09-19T10:32:19;6.47;;;1.73;;
21018;SDS011;10667;51.056;3.732;2023-09-19T10:34:47;7.70;;;1.65;;
21018;SDS011;10667;51.056;3.732;2023-09-19T10:37:13;4.75;;;1.35;;
21018;SDS011;10667;51.056;3.732;2023-09-19T10:39:45;6.22;;;1.40;;
21018;SDS011;10667;51.056;3.732;2023-09-19T10:42:13;6.80;;;1.83;;
21018;SDS011;10667;51.056;3.732;2023-09-19T10:44:42;2.78;;;1.10;;
21018;SDS011;10667;51.056;3.732;2023-09-19T10:47:12;4.25;;;1.35;;
21018;SDS011;10667;51.056;3.732;2023-09-19T10:49:45;4.95;;;1.80;;
21018;SDS011;10667;51.056;3.732;2023-09-19T10:52:11;9.82;;;1.92;;
21018;SDS011;10667;51.056;3.732;2023-09-19T10:54:46;20.75;;;2.00;;
21018;SDS011;10667;51.056;3.732;2023-09-19T10:57:22;17.35;;;2.35;;
21018;SDS011;10667;51.056;3.732;2023-09-19T11:06:04;5.43;;;1.15;;
21018;SDS011;10667;51.056;3.732;2023-09-19T11:30:39;7.50;;;2.03;;
21018;SDS011;10667;51.056;3.732;2023-09-19T11:33:17;7.28;;;1.85;;
21018;SDS011;10667;51.056;3.732;2023-09-19T11:36:34;5.07;;;1.35;;
21018;SDS011;10667;51.056;3.732;2023-09-19T11:49:16;6.45;;;1.55;;
21018;SDS011;10667;51.056;3.732;2023-09-19T11:51:48;10.27;;;2.03;;
21018;SDS011;10667;51.056;3.732;2023-09-19T11:54:16;5.25;;;1.55;;
21018;SDS011;10667;51.056;3.732;2023-09-19T11:56:50;6.95;;;1.58;;
21018;SDS011;10667;51.056;3.732;2023-09-19T11:59:25;7.35;;;1.98;;
21018;SDS011;10667;51.056;3.732;2023-09-19T12:01:54;4.75;;;1.30;;
21018;SDS011;10667;51.056;3.732;2023-09-19T12:04:33;7.82;;;1.60;;
21018;SDS011;10667;51.056;3.732;2023-09-19T12:07:13;3.92;;;1.23;;
21018;SDS011;10667;51.056;3.732;2023-09-19T12:09:47;6.07;;;2.22;;
21018;SDS011;10667;51.056;3.732;2023-09-19T12:12:27;11.32;;;1.92;;
21018;SDS011;10667;51.056;3.732;2023-09-19T12:14:53;6.22;;;1.58;;
21018;SDS011;10667;51.056;3.732;2023-09-19T12:17:20;4.95;;;1.52;;
21018;SDS011;10667;51.056;3.732;2023-09-19T12:19:52;6.88;;;1.45;;
21018;SDS011;10667;51.056;3.732;2023-09-19T12:22:20;10.70;;;1.85;;
21018;SDS011;10667;51.056;3.732;2023-09-19T12:24:46;12.32;;;1.85;;
21018;SDS011;10667;51.056;3.732;2023-09-19T12:27:13;10.38;;;1.85;;
21018;SDS011;10667;51.056;3.732;2023-09-19T12:29:46;8.68;;;2.00;;
21018;SDS011;10667;51.056;3.732;2023-09-19T12:32:16;7.75;;;1.60;;
21018;SDS011;10667;51.056;3.732;2023-09-19T12:34:50;9.02;;;1.95;;
21018;SDS011;10667;51.056;3.732;2023-09-19T12:37:17;7.47;;;1.75;;
21018;SDS011;10667;51.056;3.732;2023-09-19T12:39:48;6.35;;;2.00;;
21018;SDS011;10667;51.056;3.732;2023-09-19T12:42:16;7.22;;;1.83;;
21018;SDS011;10667;51.056;3.732;2023-09-19T12:44:47;9.88;;;2.20;;
21018;SDS011;10667;51.056;3.732;2023-09-19T12:47:20;15.60;;;2.20;;
21018;SDS011;10667;51.056;3.732;2023-09-19T12:52:50;13.07;;;1.88;;
21018;SDS011;10667;51.056;3.732;2023-09-19T12:55:27;6.28;;;2.10;;
21018;SDS011;10667;51.056;3.732;2023-09-19T12:57:58;16.10;;;2.55;;
21018;SDS011;10667;51.056;3.732;2023-09-19T13:00:35;6.63;;;1.77;;
21018;SDS011;10667;51.056;3.732;2023-09-19T13:03:18;6.07;;;2.50;;
21018;SDS011;10667;51.056;3.732;2023-09-19T13:08:17;6.88;;;2.10;;
21018;SDS011;10667;51.056;3.732;2023-09-19T13:13:38;6.32;;;2.33;;
21018;SDS011;10667;51.056;3.732;2023-09-19T13:16:13;12.65;;;2.42;;
21018;SDS011;10667;51.056;3.732;2023-09-19T13:18:51;7.68;;;1.90;;
21018;SDS011;10667;51.056;3.732;2023-09-19T13:26:50;6.05;;;1.98;;
21018;SDS011;10667;51.056;3.732;2023-09-19T13:29:16;5.63;;;1.80;;
21018;SDS011;10667;51.056;3.732;2023-09-19T13:31:50;6.07;;;1.92;;
21018;SDS011;10667;51.056;3.732;2023-09-19T13:34:18;11.63;;;2.20;;
21018;SDS011;10667;51.056;3.732;2023-09-19T13:36:44;7.18;;;1.95;;
21018;SDS011;10667;51.056;3.732;2023-09-19T13:39:17;4.45;;;1.55;;
21018;SDS011;10667;51.056;3.732;2023-09-19T13:41:49;5.70;;;2.10;;
21018;SDS011;10667;51.056;3.732;2023-09-19T13:44:14;5.88;;;2.20;;
21018;SDS011;10667;51.056;3.732;2023-09-19T13:46:42;5.47;;;1.80;;
21018;SDS011;10667;51.056;3.732;2023-09-19T13:49:10;5.30;;;1.55;;
21018;SDS011;10667;51.056;3.732;2023-09-19T13:51:36;12.05;;;2.13;;
21018;SDS011;10667;51.056;3.732;2023-09-19T13:54:02;6.40;;;2.05;;
21018;SDS011;10667;51.056;3.732;2023-09-19T13:56:28;7.45;;;2.00;;
21018;SDS011;10667;51.056;3.732;2023-09-19T13:58:55;11.95;;;2.40;;
21018;SDS011;10667;51.056;3.732;2023-09-19T14:01:20;7.35;;;2.22;;
21018;SDS011;10667;51.056;3.732;2023-09-19T14:03:46;7.30;;;2.10;;
21018;SDS011;10667;51.056;3.732;2023-09-19T14:06:14;4.32;;;2.15;;
21018;SDS011;10667;51.056;3.732;2023-09-19T14:08:43;10.20;;;2.88;;
21018;SDS011;10667;51.056;3.732;2023-09-19T14:11:13;8.10;;;2.63;;
21018;SDS011;10667;51.056;3.732;2023-09-19T14:13:39;3.20;;;1.65;;
21018;SDS011;10667;51.056;3.732;2023-09-19T14:16:05;10.05;;;2.30;;
21018;SDS011;10667;51.056;3.732;2023-09-19T14:18:33;7.93;;;1.90;;
21018;SDS011;10667;51.056;3.732;2023-09-19T14:21:06;10.05;;;2.00;;
21018;SDS011;10667;51.056;3.732;2023-09-19T14:23:35;6.75;;;2.10;;
21018;SDS011;10667;51.056;3.732;2023-09-19T14:26:04;7.82;;;2.30;;
21018;SDS011;10667;51.056;3.732;2023-09-19T14:28:30;6.97;;;2.05;;
21018;SDS011;10667;51.056;3.732;2023-09-19T14:31:03;6.18;;;2.03;;
21018;SDS011;10667;51.056;3.732;2023-09-19T14:33:31;6.40;;;1.85;;
21018;SDS011;10667;51.056;3.732;2023-09-19T14:35:56;9.95;;;2.60;;
21018;SDS011;10667;51.056;3.732;2023-09-19T14:38:22;7.80;;;2.38;;
21018;SDS011;10667;51.056;3.732;2023-09-19T14:40:47;4.68;;;1.90;;
21018;SDS011;10667;51.056;3.732;2023-09-19T14:43:15;8.23;;;2.10;;
21018;SDS011;10667;51.056;3.732;2023-09-19T14:45:41;8.45;;;2.45;;
21018;SDS011;10667;51.056;3.732;2023-09-19T14:48:06;5.05;;;1.83;;
21018;SDS011;10667;51.056;3.732;2023-09-19T14:50:32;7.68;;;2.47;;
21018;SDS011;10667;51.056;3.732;2023-09-19T14:52:58;9.75;;;2.42;;
21018;SDS011;10667;51.056;3.732;2023-09-19T14:55:26;6.38;;;1.95;;
21018;SDS011;10667;51.056;3.732;2023-09-19T14:57:54;5.68;;;2.15;;
21018;SDS011;10667;51.056;3.732;2023-09-19T15:00:22;9.85;;;2.70;;
21018;SDS011;10667;51.056;3.732;2023-09-19T15:02:48;7.68;;;2.55;;
21018;SDS011;10667;51.056;3.732;2023-09-19T15:05:15;5.35;;;1.67;;
21018;SDS011;10667;51.056;3.732;2023-09-19T15:07:41;12.68;;;2.70;;
21018;SDS011;10667;51.056;3.732;2023-09-19T15:10:07;7.82;;;2.50;;
21018;SDS011;10667;51.056;3.732;2023-09-19T15:12:35;6.15;;;2.45;;
21018;SDS011;10667;51.056;3.732;2023-09-19T15:15:02;7.60;;;2.38;;
21018;SDS011;10667;51.056;3.732;2023-09-19T15:17:35;7.47;;;2.30;;
21018;SDS011;10667;51.056;3.732;2023-09-19T15:20:01;12.30;;;2.85;;
21018;SDS011;10667;51.056;3.732;2023-09-19T15:22:28;6.85;;;2.40;;
21018;SDS011;10667;51.056;3.732;2023-09-19T15:24:53;7.93;;;2.20;;
21018;SDS011;10667;51.056;3.732;2023-09-19T15:27:20;7.70;;;2.10;;
21018;SDS011;10667;51.056;3.732;2023-09-19T15:29:46;14.13;;;2.63;;
21018;SDS011;10667;51.056;3.732;2023-09-19T15:32:12;11.40;;;3.13;;
21018;SDS011;10667;51.056;3.732;2023-09-19T15:34:38;10.55;;;2.60;;
21018;SDS011;10667;51.056;3.732;2023-09-19T15:37:03;6.85;;;2.28;;
21018;SDS011;10667;51.056;3.732;2023-09-19T15:39:30;8.10;;;2.38;;
21018;SDS011;10667;51.056;3.732;2023-09-19T15:41:58;9.18;;;2.58;;
21018;SDS011;10667;51.056;3.732;2023-09-19T15:44:24;9.07;;;2.47;;
21018;SDS011;10667;51.056;3.732;2023-09-19T15:46:53;9.10;;;2.60;;
21018;SDS011;10667;51.056;3.732;2023-09-19T15:49:18;8.65;;;2.35;;
21018;SDS011;10667;51.056;3.732;2023-09-19T15:51:44;8.05;;;2.65;;
21018;SDS011;10667;51.056;3.732;2023-09-19T15:54:10;8.65;;;2.22;;
21018;SDS011;10667;51.056;3.732;2023-09-19T15:56:41;12.05;;;2.65;;
21018;SDS011;10667;51.056;3.732;2023-09-19T15:59:11;9.57;;;3.28;;
21018;SDS011;10667;51.056;3.732;2023-09-19T16:01:37;10.40;;;2.60;;
21018;SDS011;10667;51.056;3.732;2023-09-19T16:04:03;10.27;;;3.17;;